CheckWX is a tool to help pilots better visualize weather data.  It is not intended as a substitute for an official pre-flight weather briefing.

12:07:19 UTC

KUNU METAR
Dodge County Airport
Juneau, Wisconsin, USA
Current

32 mins ago

KUNU 261135Z AUTO 00000KT 10SM CLR 16/14 A3002 RMK AO2 T01610138 TSNO
Observed
Jun-26 @ 11:35 UTC
Visibility
10 SM
Flight Rules
VFR
Cloud Levels
  • Clear skies
Temperature
16°C / 61°F
Dewpoint
14°C / 57°F
Humidity
88%
Altimeter
30.02" Hg
Pressure
1016.62 hPa
Previous

52 mins ago

KUNU 261115Z AUTO 00000KT 10SM CLR 15/14 A3001 RMK AO2 T01480135 TSNO
Observed
Jun-26 @ 11:15 UTC
Visibility
10 SM
Flight Rules
VFR
Cloud Levels
  • Clear skies
Temperature
15°C / 59°F
Dewpoint
14°C / 57°F
Humidity
94%
Altimeter
30.01" Hg
Pressure
1016.22 hPa
Previous

1 hour ago

KUNU 261055Z AUTO 21003KT 10SM CLR 15/13 A3001 RMK AO2 T01480133 TSNO
Observed
Jun-26 @ 10:55 UTC
Wind
  • 210° at 3 KTS
Visibility
10 SM
Flight Rules
VFR
Cloud Levels
  • Clear skies
Temperature
15°C / 59°F
Dewpoint
13°C / 55°F
Humidity
88%
Altimeter
30.01" Hg
Pressure
1016.22 hPa